createdAt,value
2022-11-09T00:03:45.371Z,99600.28
2022-11-09T00:07:47.423Z,99596.78
2022-11-09T00:11:49.295Z,99587.59
2022-11-09T00:15:51.078Z,99603.16
2022-11-09T00:19:52.906Z,99605.06
2022-11-09T00:23:54.817Z,99613.09
2022-11-09T00:27:56.642Z,99621.13
2022-11-09T00:31:58.458Z,99615.84
2022-11-09T00:36:07.492Z,99624.75
2022-11-09T00:40:10.693Z,99611.00
2022-11-09T00:44:12.672Z,99621.28
2022-11-09T00:48:14.653Z,99610.06
2022-11-09T00:52:16.513Z,99620.25
2022-11-09T00:56:18.338Z,99622.53
2022-11-09T01:00:22.336Z,99626.19
2022-11-09T01:04:24.149Z,99624.38
2022-11-09T01:08:26.126Z,99627.69
2022-11-09T01:12:27.971Z,99623.56
2022-11-09T01:16:29.912Z,99627.75
2022-11-09T01:20:31.819Z,99626.34
2022-11-09T01:24:33.655Z,99627.44
2022-11-09T01:28:35.678Z,99636.53
2022-11-09T01:32:37.544Z,99632.88
2022-11-09T01:36:39.403Z,99615.75
2022-11-09T01:40:41.458Z,99634.22
2022-11-09T01:44:43.323Z,99627.28
2022-11-09T01:48:57.778Z,99625.19
2022-11-09T01:52:59.614Z,99627.94
2022-11-09T01:57:10.441Z,99631.81
2022-11-09T02:01:13.178Z,99634.81
2022-11-09T02:05:17.369Z,99626.78
2022-11-09T02:09:39.125Z,99624.97
2022-11-09T02:13:49.432Z,99634.81
2022-11-09T02:17:53.747Z,99616.75
2022-11-09T02:21:55.534Z,99612.97
2022-11-09T02:26:09.543Z,99608.78
2022-11-09T02:30:12.272Z,99604.19
2022-11-09T02:34:17.189Z,99600.78
2022-11-09T02:38:18.994Z,99601.50
2022-11-09T02:42:21.817Z,99607.69
2022-11-09T02:46:35.378Z,99588.44
2022-11-09T02:50:37.217Z,99608.59
2022-11-09T02:54:38.981Z,99611.94
2022-11-09T02:58:40.842Z,99598.72
2022-11-09T03:02:42.650Z,99578.28
2022-11-09T03:06:51.554Z,99583.06
2022-11-09T03:10:53.573Z,99597.31
2022-11-09T03:15:13.431Z,99598.78
2022-11-09T03:19:22.422Z,99599.03
2022-11-09T03:23:24.272Z,99597.50
2022-11-09T03:27:26.153Z,99615.09
2022-11-09T03:31:28.140Z,99601.41
2022-11-09T03:35:30.128Z,99582.03
2022-11-09T03:39:32.064Z,99585.44
2022-11-09T03:43:33.881Z,99584.91
2022-11-09T03:47:35.797Z,99578.88
2022-11-09T03:51:40.337Z,99595.78
2022-11-09T03:56:07.616Z,99592.59
2022-11-09T04:00:10.353Z,99602.75
2022-11-09T04:04:12.220Z,99599.38
2022-11-09T04:08:14.130Z,99586.69
2022-11-09T04:12:15.944Z,99601.22
2022-11-09T04:16:20.869Z,99597.59
2022-11-09T04:20:23.408Z,99601.81
2022-11-09T04:24:25.318Z,99595.63
2022-11-09T04:28:27.293Z,99598.59
2022-11-09T04:32:29.156Z,99598.03
2022-11-09T04:36:31.278Z,99602.97
2022-11-09T04:40:34.605Z,99594.34
2022-11-09T04:44:36.471Z,99596.28
2022-11-09T04:48:38.422Z,99604.59
2022-11-09T04:52:40.335Z,99595.41
2022-11-09T04:56:42.237Z,99581.66
2022-11-09T05:00:44.144Z,99595.59
2022-11-09T05:04:49.049Z,99584.09
2022-11-09T05:08:51.195Z,99584.09
2022-11-09T05:13:07.610Z,99587.06
2022-11-09T05:17:25.974Z,99589.41
2022-11-09T05:23:29.813Z,99599.03
2022-11-09T05:39:05.925Z,99625.06
2022-11-09T05:43:38.034Z,99610.75
2022-11-09T05:48:56.867Z,99612.59
2022-11-09T05:53:25.304Z,99611.41
2022-11-09T05:57:33.004Z,99625.28
2022-11-09T06:12:23.242Z,99625.00
2022-11-09T06:16:25.536Z,99630.69
2022-11-09T06:20:31.846Z,99630.50
2022-11-09T06:25:11.418Z,99626.72
2022-11-09T06:29:24.964Z,99656.72
2022-11-09T06:34:25.577Z,99637.34
2022-11-09T06:38:50.906Z,99650.44
2022-11-09T06:43:08.258Z,99649.38
2022-11-09T07:02:34.384Z,99662.56
2022-11-09T07:07:15.787Z,99640.34
2022-11-09T07:11:33.274Z,99650.34
2022-11-09T07:15:36.267Z,99652.44
2022-11-09T07:19:49.807Z,99647.22
2022-11-09T07:25:17.293Z,99649.00
2022-11-09T07:52:44.650Z,99672.97
2022-11-09T07:57:38.119Z,99672.66
2022-11-09T13:07:35.052Z,99616.34
2022-11-09T13:11:51.765Z,99597.00
2022-11-09T13:16:38.906Z,99603.56
2022-11-09T13:21:20.684Z,99600.44
2022-11-09T13:43:00.418Z,99611.44
2022-11-09T14:20:24.010Z,99625.31
2022-11-09T14:56:50.079Z,99660.41
2022-11-09T15:02:02.768Z,99669.97
2022-11-09T15:06:19.529Z,99665.59
2022-11-09T15:21:18.510Z,99680.22
2022-11-09T15:30:59.539Z,99673.47
2022-11-09T15:35:14.271Z,99684.25
2022-11-09T16:13:23.746Z,99737.66
2022-11-09T16:17:35.046Z,99739.47
2022-11-09T16:21:37.016Z,99738.94
2022-11-09T16:25:39.341Z,99745.22
2022-11-09T17:04:28.069Z,99755.00
2022-11-09T17:14:20.719Z,99766.78
2022-11-09T17:18:22.935Z,99782.75
2022-11-09T17:22:34.176Z,99776.63
2022-11-09T17:26:37.677Z,99774.72
2022-11-09T17:30:40.877Z,99770.13
2022-11-09T17:34:42.852Z,99780.22
2022-11-09T17:38:45.025Z,99781.94
2022-11-09T17:42:47.363Z,99777.59
2022-11-09T17:46:49.400Z,99787.16
2022-11-09T17:50:56.429Z,99791.34
2022-11-09T17:54:58.344Z,99790.06
2022-11-09T17:59:18.148Z,99794.03
2022-11-09T18:03:20.375Z,99788.50
2022-11-09T18:07:30.335Z,99791.50
2022-11-09T18:11:36.454Z,99802.34
2022-11-09T18:15:39.162Z,99801.00
2022-11-09T18:19:44.164Z,99800.69
2022-11-09T18:23:50.725Z,99782.16
2022-11-09T18:49:30.682Z,99800.16
2022-11-09T18:54:11.191Z,99796.09
2022-11-09T18:58:35.042Z,99793.19
2022-11-09T19:02:39.976Z,99796.66
2022-11-09T19:17:12.363Z,99807.19
2022-11-09T19:30:31.434Z,99839.56
2022-11-09T19:34:41.569Z,99828.63
2022-11-09T19:39:12.158Z,99839.09
2022-11-09T19:47:57.125Z,99843.69
2022-11-09T19:52:01.276Z,99845.41
2022-11-09T19:56:08.680Z,99843.03
2022-11-09T22:30:46.735Z,99964.16
2022-11-09T22:34:48.778Z,99956.34
2022-11-09T22:38:51.145Z,99961.44
2022-11-09T22:42:56.779Z,99946.44
2022-11-09T22:46:58.857Z,99958.75
2022-11-09T22:51:03.645Z,99945.16
2022-11-09T22:55:06.129Z,99942.03
2022-11-09T22:59:08.349Z,99947.25
2022-11-09T23:03:10.270Z,99947.78
2022-11-09T23:07:12.198Z,99954.22
2022-11-09T23:11:20.724Z,99955.16
2022-11-09T23:15:22.871Z,99971.84
2022-11-09T23:19:24.790Z,99986.66
2022-11-09T23:23:26.838Z,99987.63
2022-11-09T23:27:28.723Z,100001.03
2022-11-09T23:31:30.737Z,99999.94
2022-11-09T23:35:32.952Z,100000.94
2022-11-09T23:39:34.783Z,100017.34
2022-11-09T23:43:39.078Z,100009.44
2022-11-09T23:47:41.041Z,100012.09
2022-11-09T23:51:42.937Z,100022.75
2022-11-09T23:55:45.404Z,100028.50
2022-11-09T23:59:47.384Z,100032.78
